createdAt,value
2022-12-13T00:01:50.184Z,8.00
2022-12-13T00:06:54.411Z,7.00
2022-12-13T00:11:58.607Z,6.60
2022-12-13T00:17:01.491Z,7.00
2022-12-13T00:22:04.245Z,6.60
2022-12-13T00:27:08.375Z,6.40
2022-12-13T00:32:11.248Z,7.00
2022-12-13T00:37:14.044Z,6.80
2022-12-13T00:42:18.147Z,7.00
2022-12-13T00:47:22.267Z,6.00
2022-12-13T00:52:25.097Z,6.60
2022-12-13T00:57:29.402Z,7.00
2022-12-13T01:02:32.211Z,6.60
2022-12-13T01:07:35.015Z,6.80
2022-12-13T01:12:39.249Z,5.60
2022-12-13T01:17:42.028Z,8.00
2022-12-13T01:22:44.909Z,6.60
2022-12-13T01:27:48.989Z,6.60
2022-12-13T01:32:51.774Z,6.40
2022-12-13T01:37:55.653Z,5.40
2022-12-13T01:43:03.224Z,6.00
2022-12-13T01:48:18.668Z,7.40
2022-12-13T01:53:22.792Z,5.40
2022-12-13T01:58:26.944Z,5.20
2022-12-13T02:03:29.756Z,6.00
2022-12-13T02:08:36.067Z,5.00
2022-12-13T02:13:40.851Z,6.00
2022-12-13T02:18:55.418Z,7.00
2022-12-13T02:24:20.744Z,6.00
2022-12-13T02:29:52.400Z,6.00
2022-12-13T02:34:58.897Z,5.00
2022-12-13T02:40:04.346Z,5.00
2022-12-13T02:45:08.862Z,5.40
2022-12-13T02:50:13.728Z,6.00
2022-12-13T02:55:17.134Z,6.00
2022-12-13T03:00:22.024Z,4.60
2022-12-13T03:05:46.266Z,5.00
2022-12-13T03:10:53.297Z,5.20
2022-12-13T03:15:57.684Z,6.00
2022-12-13T03:21:03.323Z,6.00
2022-12-13T03:26:08.188Z,5.00
2022-12-13T03:31:11.325Z,5.00
2022-12-13T03:36:15.601Z,6.00
2022-12-13T03:41:19.469Z,3.80
2022-12-13T03:46:22.271Z,6.00
2022-12-13T03:51:26.478Z,5.20
2022-12-13T03:56:29.346Z,5.20
2022-12-13T04:01:32.273Z,5.00
2022-12-13T04:06:36.453Z,5.20
2022-12-13T04:11:56.870Z,5.00
2022-12-13T04:16:59.635Z,5.40
2022-12-13T04:22:03.834Z,5.80
2022-12-13T04:27:06.661Z,7.20
2022-12-13T04:32:26.929Z,5.20
2022-12-13T04:37:31.679Z,7.60
2022-12-13T04:42:34.453Z,6.80
2022-12-13T04:47:37.177Z,6.00
2022-12-13T04:52:41.336Z,5.00
2022-12-13T04:57:44.126Z,6.00
2022-12-13T05:02:46.936Z,5.40
2022-12-13T05:07:51.187Z,6.00
2022-12-13T05:12:54.020Z,5.80
2022-12-13T05:17:56.809Z,5.20
2022-12-13T05:23:00.999Z,6.00
2022-12-13T05:28:09.069Z,5.20
2022-12-13T05:33:26.902Z,6.00
2022-12-13T05:38:31.169Z,6.00
2022-12-13T05:43:42.110Z,5.00
2022-12-13T05:48:46.406Z,5.00
2022-12-13T05:53:53.418Z,5.20
2022-12-13T05:58:56.575Z,4.80
2022-12-13T06:03:59.419Z,5.80
2022-12-13T06:09:03.798Z,6.00
2022-12-13T06:14:06.694Z,5.40
2022-12-13T06:19:25.937Z,5.00
2022-12-13T06:24:30.050Z,5.00
2022-12-13T06:29:32.795Z,6.00
2022-12-13T06:34:36.548Z,5.20
2022-12-13T06:39:41.014Z,5.00
2022-12-13T06:44:44.142Z,4.60
2022-12-13T06:49:47.160Z,5.00
2022-12-13T06:54:54.235Z,5.00
2022-12-13T07:00:03.460Z,5.00
2022-12-13T07:05:07.141Z,6.60
2022-12-13T07:10:12.535Z,6.00
2022-12-13T07:15:25.224Z,5.00
2022-12-13T07:20:28.022Z,6.20
2022-12-13T07:25:32.377Z,6.00
2022-12-13T07:30:41.115Z,6.00
2022-12-13T07:35:44.610Z,6.00
2022-12-13T07:40:48.999Z,7.00
2022-12-13T07:45:51.919Z,5.00
2022-12-13T07:50:54.957Z,7.00
2022-12-13T07:55:59.252Z,6.00
2022-12-13T08:01:03.104Z,5.40
2022-12-13T08:06:07.978Z,37.50
2022-12-13T08:11:12.777Z,39.50
2022-12-13T08:16:28.073Z,32.00
2022-12-13T08:27:01.906Z,25.80
2022-12-13T08:32:05.105Z,24.80
2022-12-13T08:37:07.885Z,21.00
2022-12-13T08:42:15.989Z,20.20
2022-12-13T08:47:22.570Z,18.60
2022-12-13T08:52:27.755Z,18.40
2022-12-13T08:57:31.885Z,18.60
2022-12-13T09:02:37.968Z,16.60
2022-12-13T09:07:43.002Z,17.20
2022-12-13T09:12:47.555Z,15.80
2022-12-13T09:17:52.360Z,16.00
2022-12-13T09:23:01.989Z,16.00
2022-12-13T09:28:08.297Z,13.40
2022-12-13T09:33:28.716Z,12.20
2022-12-13T09:38:35.774Z,12.40
2022-12-13T09:43:42.621Z,14.00
2022-12-13T09:48:48.386Z,12.80
2022-12-13T09:53:52.512Z,11.80
2022-12-13T09:58:57.184Z,12.20
2022-12-13T10:04:00.644Z,13.80
2022-12-13T10:09:03.408Z,14.60
2022-12-13T10:14:10.141Z,24.80
2022-12-13T10:19:28.868Z,28.50
2022-12-13T10:24:49.169Z,22.20
2022-12-13T10:30:00.488Z,35.00
2022-12-13T10:35:11.197Z,39.50
2022-12-13T10:40:32.058Z,42.25
2022-12-13T10:45:37.395Z,49.00
2022-12-13T10:50:40.520Z,50.67
2022-12-13T10:55:43.734Z,47.00
2022-12-13T11:00:49.319Z,53.00
2022-12-13T11:05:52.183Z,50.33
2022-12-13T11:10:59.400Z,47.33
2022-12-13T11:16:03.771Z,43.67
2022-12-13T11:21:07.786Z,40.75
2022-12-13T11:26:12.507Z,36.75
2022-12-13T11:31:17.539Z,32.50
2022-12-13T11:36:25.411Z,35.00
2022-12-13T11:41:32.571Z,30.25
2022-12-13T11:46:39.691Z,30.00
2022-12-13T11:51:44.139Z,26.20
2022-12-13T11:56:46.893Z,26.60
2022-12-13T12:01:52.749Z,26.20
2022-12-13T12:07:04.905Z,24.60
2022-12-13T12:12:22.166Z,23.80
2022-12-13T12:17:27.673Z,22.00
2022-12-13T12:22:36.186Z,20.80
2022-12-13T12:27:41.553Z,20.00
2022-12-13T12:32:50.282Z,19.20
2022-12-13T12:37:54.603Z,20.80
2022-12-13T12:43:16.269Z,17.80
2022-12-13T12:49:00.570Z,15.60
2022-12-13T12:54:12.837Z,15.00
2022-12-13T12:59:19.022Z,14.80
2022-12-13T13:04:26.047Z,16.80
2022-12-13T13:09:28.935Z,18.00
2022-12-13T13:14:32.998Z,31.50
2022-12-13T13:19:47.655Z,31.75
2022-12-13T13:24:59.617Z,24.20
2022-12-13T13:30:06.447Z,22.60
2022-12-13T13:35:50.993Z,20.00
2022-12-13T13:40:55.767Z,21.40
2022-12-13T13:46:00.540Z,21.60
2022-12-13T13:51:26.883Z,22.40
2022-12-13T13:56:50.077Z,25.80
2022-12-13T14:02:05.654Z,28.00
2022-12-13T14:07:56.291Z,24.80
2022-12-13T14:13:28.846Z,25.80
2022-12-13T14:19:20.385Z,24.60
2022-12-13T14:24:29.302Z,23.20
2022-12-13T14:29:34.620Z,22.80
2022-12-13T14:34:37.363Z,23.80
2022-12-13T14:39:45.018Z,24.60
2022-12-13T14:44:49.168Z,20.00
2022-12-13T14:49:55.414Z,19.00
2022-12-13T14:54:59.482Z,22.60
2022-12-13T15:00:22.791Z,23.40
2022-12-13T15:05:28.532Z,21.60
2022-12-13T15:10:34.369Z,19.60
2022-12-13T15:15:38.535Z,18.40
2022-12-13T15:20:42.025Z,18.60
2022-12-13T15:25:53.771Z,19.00
2022-12-13T15:30:58.199Z,19.40
2022-12-13T15:36:04.462Z,17.60
2022-12-13T15:41:07.771Z,19.60
2022-12-13T15:46:12.617Z,21.20
2022-12-13T15:51:29.054Z,17.60
2022-12-13T15:56:34.481Z,16.80
2022-12-13T16:01:38.567Z,20.40
2022-12-13T16:06:41.596Z,18.20
2022-12-13T16:11:48.894Z,17.60
2022-12-13T16:16:53.053Z,18.20
2022-12-13T16:21:56.003Z,17.40
2022-12-13T16:26:58.776Z,19.00
2022-12-13T16:32:08.700Z,17.20
2022-12-13T16:37:25.438Z,18.00
2022-12-13T16:42:29.812Z,16.80
2022-12-13T16:47:44.506Z,17.80
2022-12-13T16:52:51.161Z,18.00
2022-12-13T16:57:58.844Z,16.80
2022-12-13T17:03:02.969Z,19.20
2022-12-13T17:08:05.913Z,21.00
2022-12-13T17:13:08.964Z,23.60
2022-12-13T17:18:13.252Z,22.40
2022-12-13T17:23:18.400Z,23.40
2022-12-13T17:28:21.438Z,22.60
2022-12-13T17:33:26.059Z,23.80
2022-12-13T17:38:29.307Z,22.80
2022-12-13T17:43:35.169Z,20.40
2022-12-13T17:48:41.096Z,21.80
2022-12-13T17:53:44.810Z,21.80
2022-12-13T17:58:47.663Z,20.60
2022-12-13T18:03:52.850Z,22.80
2022-12-13T18:08:55.624Z,20.60
2022-12-13T18:13:58.747Z,20.40
2022-12-13T18:19:03.023Z,19.40
2022-12-13T18:24:06.866Z,22.40
2022-12-13T18:29:09.656Z,24.00
2022-12-13T18:34:13.845Z,21.80
2022-12-13T18:39:17.307Z,24.00
2022-12-13T18:44:20.274Z,26.40
2022-12-13T18:49:24.439Z,25.80
2022-12-13T18:54:27.348Z,26.20
2022-12-13T18:59:30.163Z,26.00
2022-12-13T19:04:35.590Z,25.60
2022-12-13T19:09:38.496Z,26.00
2022-12-13T19:14:41.282Z,28.40
2022-12-13T19:19:45.399Z,26.75
2022-12-13T19:24:51.214Z,26.20
2022-12-13T19:29:53.989Z,27.00
2022-12-13T19:34:58.212Z,25.20
2022-12-13T19:40:00.966Z,27.25
2022-12-13T19:45:03.724Z,27.25
2022-12-13T19:50:08.523Z,26.50
2022-12-13T19:55:11.679Z,26.50
2022-12-13T20:00:15.456Z,24.50
2022-12-13T20:05:19.891Z,22.80
2022-12-13T20:10:22.685Z,25.50
2022-12-13T20:15:25.439Z,23.80
2022-12-13T20:20:47.222Z,24.80
2022-12-13T20:26:00.421Z,24.80
2022-12-13T20:31:05.503Z,23.50
2022-12-13T20:36:27.639Z,24.25
2022-12-13T20:41:31.538Z,27.50
2022-12-13T20:46:34.482Z,23.00
2022-12-13T20:51:39.781Z,24.40
2022-12-13T20:56:42.788Z,23.20
2022-12-13T21:01:48.796Z,24.60
2022-12-13T21:06:53.440Z,22.20
2022-12-13T21:11:56.198Z,23.80
2022-12-13T21:16:59.784Z,25.40
2022-12-13T21:22:04.003Z,24.60
2022-12-13T21:27:06.791Z,24.20
2022-12-13T21:32:09.572Z,20.60
2022-12-13T21:37:13.787Z,21.20
2022-12-13T21:42:16.567Z,20.60
2022-12-13T21:47:19.393Z,22.00
2022-12-13T21:52:23.558Z,21.40
2022-12-13T21:57:40.898Z,22.00
2022-12-13T22:02:43.726Z,21.00
2022-12-13T22:07:48.160Z,20.40
2022-12-13T22:12:50.988Z,21.00
2022-12-13T22:17:53.728Z,21.80
2022-12-13T22:22:57.928Z,22.00
2022-12-13T22:28:00.761Z,20.60
2022-12-13T22:33:03.585Z,20.80
2022-12-13T22:38:07.846Z,20.40
2022-12-13T22:43:12.930Z,19.80
2022-12-13T22:48:19.100Z,20.80
2022-12-13T22:53:23.257Z,20.20
2022-12-13T22:58:26.364Z,19.00
2022-12-13T23:03:31.216Z,22.00
2022-12-13T23:08:40.236Z,17.20
2022-12-13T23:13:48.252Z,17.80
2022-12-13T23:19:01.229Z,19.00
2022-12-13T23:24:15.068Z,21.40
2022-12-13T23:29:17.921Z,17.80
2022-12-13T23:34:21.265Z,17.80
2022-12-13T23:39:25.419Z,18.00
2022-12-13T23:44:28.196Z,17.00
2022-12-13T23:49:30.979Z,19.60
2022-12-13T23:54:35.235Z,17.00
2022-12-13T23:59:38.016Z,17.20
